This is the latest recevied weather packets stored in our database for station/object K8JMX-13. If no packets are shown the sender has not sent any weather packets the latest 10 day(s).
| Time | Temp. | Humidity | Pressure | Rain* | Wind** | Luminosity | Snow |
|---|---|---|---|---|---|---|---|
| 1777754594 | 9.44° C | 45% | 1015.4 hPa | 0 mm | - | 158 W/m² | - |
| 1777754292 | 8.89° C | 46% | 1015.5 hPa | 0 mm | - | 180 W/m² | - |
| 1777753989 | 10° C | 44% | 1015.6 hPa | 0 mm | - | 254 W/m² | - |
| 1777753689 | 9.44° C | 46% | 1015.5 hPa | 0 mm | - | 237 W/m² | - |
| 1777753387 | 9.44° C | 45% | 1015.5 hPa | 0 mm | - | 197 W/m² | - |
| 1777753085 | 8.89° C | 43% | 1015.4 hPa | 0 mm | - | 212 W/m² | - |
| 1777752781 | 9.44° C | 44% | 1015.5 hPa | 0 mm | - | 205 W/m² | - |
| 1777752477 | 9.44° C | 45% | 1015.7 hPa | 0 mm | - | 223 W/m² | - |
| 1777752173 | 8.89° C | 45% | 1015.6 hPa | 0 mm | - | 279 W/m² | - |
| 1777751872 | 8.89° C | 45% | 1015.7 hPa | 0 mm | - | 213 W/m² | - |
| 1777751568 | 9.44° C | 46% | 1015.7 hPa | 0 mm | - | 143 W/m² | - |
| 1777751264 | 9.44° C | 48% | 1015.7 hPa | 0 mm | - | 123 W/m² | - |
| 1777750962 | 10° C | 45% | 1015.7 hPa | 0 mm | - | 143 W/m² | - |
| 1777750657 | 9.44° C | 43% | 1015.8 hPa | 0 mm | - | 237 W/m² | - |
| 1777750355 | 10° C | 43% | 1015.7 hPa | 0 mm | - | 435 W/m² | - |
| 1777750054 | 9.44° C | 45% | 1015.6 hPa | 0 mm | - | 326 W/m² | - |
| 1777749752 | 10° C | 43% | 1015.8 hPa | 0 mm | - | 346 W/m² | - |
| 1777749449 | 10° C | 42% | 1015.9 hPa | 0 mm | - | 447 W/m² | - |
| 1777749147 | 10° C | 43% | 1015.8 hPa | 0 mm | - | 690 W/m² | - |
| 1777748844 | 9.44° C | 44% | 1016 hPa | 0 mm | - | 853 W/m² | - |
| 1777748541 | 9.44° C | 47% | 1016 hPa | 0 mm | - | 287 W/m² | - |
| 1777748241 | 10° C | 44% | 1015.9 hPa | 0 mm | - | 701 W/m² | - |
| 1777747938 | 9.44° C | 47% | 1015.9 hPa | 0 mm | - | 404 W/m² | - |
| 1777747634 | 9.44° C | 48% | 1015.9 hPa | 0 mm | - | 273 W/m² | - |
| 1777747329 | 8.89° C | 46% | 1016 hPa | 0 mm | - | 270 W/m² | - |
* Rain latest hour (hover to see other rain measurements)
** Current wind speed in m/s (hover to see current wind gust speed)